createdAt,value
2018-11-07T00:00:01.617Z,100.00
2018-11-07T00:01:07.338Z,100.00
2018-11-07T00:02:13.261Z,100.00
2018-11-07T00:03:18.793Z,100.00
2018-11-07T00:04:24.781Z,100.00
2018-11-07T00:05:30.860Z,100.00
2018-11-07T00:06:36.829Z,100.00
2018-11-07T00:07:43.036Z,100.00
2018-11-07T00:08:49.401Z,100.00
2018-11-07T00:09:55.296Z,100.00
2018-11-07T00:11:01.205Z,100.00
2018-11-07T00:12:06.800Z,100.00
2018-11-07T00:13:13.015Z,100.00
2018-11-07T00:14:19.234Z,100.00
2018-11-07T00:15:25.119Z,100.00
2018-11-07T00:16:31.022Z,100.00
2018-11-07T00:17:36.923Z,100.00
2018-11-07T00:18:43.323Z,100.00
2018-11-07T00:19:49.193Z,100.00
2018-11-07T00:20:55.131Z,100.00
2018-11-07T00:22:01.314Z,100.00
2018-11-07T00:23:06.868Z,100.00
2018-11-07T00:24:13.081Z,100.00
2018-11-07T00:25:18.973Z,100.00
2018-11-07T00:26:24.921Z,100.00
2018-11-07T00:27:30.917Z,100.00
2018-11-07T00:28:36.843Z,100.00
2018-11-07T00:29:43.039Z,100.00
2018-11-07T00:30:48.942Z,100.00
2018-11-07T00:31:54.896Z,100.00
2018-11-07T00:33:00.847Z,100.00
2018-11-07T00:34:06.101Z,100.00
2018-11-07T00:35:12.063Z,100.00
2018-11-07T00:36:18.224Z,100.00
2018-11-07T00:37:23.798Z,100.00
2018-11-07T00:38:30.865Z,100.00
2018-11-07T00:39:37.077Z,100.00
2018-11-07T00:40:43.034Z,100.00
2018-11-07T00:41:48.927Z,100.00
2018-11-07T00:42:55.054Z,100.00
2018-11-07T00:44:01.251Z,100.00
2018-11-07T00:45:06.502Z,100.00
2018-11-07T00:46:12.384Z,100.00
2018-11-07T00:47:18.283Z,100.00
2018-11-07T00:48:24.593Z,100.00
2018-11-07T00:49:30.590Z,100.00
2018-11-07T00:50:36.450Z,100.00
2018-11-07T00:51:42.375Z,100.00
2018-11-07T00:52:48.269Z,100.00
2018-11-07T00:53:54.191Z,100.00
2018-11-07T00:55:00.095Z,100.00
2018-11-07T00:56:06.063Z,100.00
2018-11-07T00:57:11.998Z,100.00
2018-11-07T00:58:18.151Z,100.00
2018-11-07T00:59:25.018Z,100.00
2018-11-07T01:00:32.279Z,100.00
2018-11-07T01:01:38.949Z,100.00
2018-11-07T01:02:45.644Z,100.00
2018-11-07T01:03:52.486Z,100.00
2018-11-07T01:04:59.469Z,100.00
2018-11-07T01:06:04.711Z,100.00
2018-11-07T01:07:10.647Z,100.00
2018-11-07T01:08:16.636Z,100.00
2018-11-07T01:09:22.885Z,100.00
2018-11-07T01:10:28.961Z,100.00
2018-11-07T01:11:34.916Z,100.00
2018-11-07T01:12:40.829Z,100.00
2018-11-07T01:13:46.985Z,100.00
2018-11-07T01:14:52.906Z,100.00
2018-11-07T01:15:58.844Z,100.00
2018-11-07T01:17:04.437Z,100.00
2018-11-07T01:18:10.595Z,100.00
2018-11-07T01:19:16.772Z,100.00
2018-11-07T01:20:22.313Z,100.00
2018-11-07T01:21:28.221Z,100.00
2018-11-07T01:22:34.143Z,100.00
2018-11-07T01:23:40.146Z,100.00
2018-11-07T01:24:46.100Z,100.00
2018-11-07T01:25:58.488Z,100.00
2018-11-07T01:27:04.070Z,100.00
2018-11-07T01:28:10.325Z,100.00
2018-11-07T01:29:16.712Z,100.00
2018-11-07T01:30:22.656Z,100.00
2018-11-07T01:31:28.591Z,100.00
2018-11-07T01:32:34.155Z,100.00
2018-11-07T01:33:40.315Z,100.00
2018-11-07T01:34:46.601Z,100.00
2018-11-07T01:35:52.533Z,100.00
2018-11-07T01:36:58.461Z,100.00
2018-11-07T01:38:04.656Z,100.00
2018-11-07T01:39:10.609Z,100.00
2018-11-07T01:40:16.994Z,100.00
2018-11-07T01:41:22.955Z,100.00
2018-11-07T01:42:28.908Z,100.00
2018-11-07T01:43:35.152Z,100.00
2018-11-07T01:44:44.246Z,100.00
2018-11-07T01:45:50.172Z,100.00
2018-11-07T01:46:56.096Z,100.00
2018-11-07T01:48:02.260Z,100.00
2018-11-07T01:49:08.416Z,100.00
2018-11-07T01:50:14.621Z,100.00
2018-11-07T01:51:20.569Z,100.00
2018-11-07T01:52:26.481Z,100.00
2018-11-07T01:53:32.685Z,100.00
2018-11-07T01:54:38.879Z,100.00
2018-11-07T01:55:45.001Z,100.00
2018-11-07T01:56:51.568Z,100.00
2018-11-07T01:57:58.447Z,100.00
2018-11-07T01:59:05.812Z,100.00
2018-11-07T02:00:12.053Z,100.00
2018-11-07T02:01:17.935Z,100.00
2018-11-07T02:02:23.822Z,100.00
2018-11-07T02:03:29.733Z,100.00
2018-11-07T02:04:35.617Z,100.00
2018-11-07T02:05:41.522Z,100.00
2018-11-07T02:06:47.531Z,100.00
2018-11-07T02:07:55.039Z,100.00
2018-11-07T02:09:01.248Z,100.00
2018-11-07T02:10:06.464Z,100.00
2018-11-07T02:11:12.396Z,100.00
2018-11-07T02:12:18.279Z,100.00
2018-11-07T02:13:24.210Z,100.00
2018-11-07T02:14:30.472Z,100.00
2018-11-07T02:15:36.387Z,100.00
2018-11-07T02:16:42.262Z,100.00
2018-11-07T02:17:48.439Z,100.00
2018-11-07T02:18:54.694Z,100.00
2018-11-07T02:20:00.580Z,100.00
2018-11-07T02:21:05.771Z,100.00
2018-11-07T02:22:11.727Z,100.00
2018-11-07T02:23:18.143Z,100.00
2018-11-07T02:24:24.457Z,100.00
2018-11-07T02:25:30.375Z,100.00
2018-11-07T02:26:36.288Z,100.00
2018-11-07T02:27:42.126Z,100.00
2018-11-07T02:28:48.309Z,100.00
2018-11-07T02:29:54.574Z,100.00
2018-11-07T02:31:00.503Z,100.00
2018-11-07T02:32:06.415Z,100.00
2018-11-07T02:33:12.331Z,100.00
2018-11-07T02:34:18.545Z,100.00
2018-11-07T02:35:24.460Z,100.00
2018-11-07T02:36:30.385Z,100.00
2018-11-07T02:37:36.266Z,100.00
2018-11-07T02:38:42.487Z,100.00
2018-11-07T02:39:48.701Z,100.00
2018-11-07T02:40:54.577Z,100.00
2018-11-07T02:42:00.627Z,100.00
2018-11-07T02:43:06.942Z,100.00
2018-11-07T02:44:13.084Z,100.00
2018-11-07T02:45:19.021Z,100.00
2018-11-07T02:46:24.957Z,100.00
2018-11-07T02:47:30.861Z,100.00
2018-11-07T02:48:36.773Z,100.00
2018-11-07T02:49:42.994Z,100.00
2018-11-07T02:50:48.901Z,100.00
2018-11-07T02:51:54.844Z,100.00
2018-11-07T02:53:01.027Z,100.00
2018-11-07T02:54:07.224Z,100.00
2018-11-07T02:55:13.112Z,100.00
2018-11-07T02:56:19.516Z,100.00
2018-11-07T02:57:25.454Z,100.00
2018-11-07T02:58:31.424Z,100.00
2018-11-07T02:59:37.576Z,100.00
2018-11-07T03:00:43.501Z,100.00
2018-11-07T03:01:49.454Z,100.00
2018-11-07T03:02:55.389Z,100.00
2018-11-07T03:04:01.309Z,100.00
2018-11-07T03:05:06.854Z,100.00
2018-11-07T03:06:12.910Z,100.00
2018-11-07T03:07:18.768Z,100.00
2018-11-07T03:08:24.788Z,100.00
2018-11-07T03:09:31.024Z,100.00
2018-11-07T03:10:36.997Z,100.00
2018-11-07T03:11:43.531Z,100.00
2018-11-07T03:12:49.736Z,100.00
2018-11-07T03:13:56.058Z,100.00
2018-11-07T03:15:01.965Z,100.00
2018-11-07T03:16:07.541Z,100.00
2018-11-07T03:17:13.486Z,100.00
2018-11-07T03:18:19.708Z,100.00
2018-11-07T03:19:25.608Z,100.00
2018-11-07T03:20:31.542Z,100.00
2018-11-07T03:21:37.490Z,100.00
2018-11-07T03:22:43.677Z,100.00
2018-11-07T03:23:49.865Z,100.00
2018-11-07T03:24:55.574Z,100.00
2018-11-07T03:26:01.497Z,100.00
2018-11-07T03:27:07.666Z,100.00
2018-11-07T03:28:13.606Z,100.00
2018-11-07T03:29:19.597Z,100.00
2018-11-07T03:30:25.543Z,100.00
2018-11-07T03:31:31.475Z,100.00
2018-11-07T03:32:40.194Z,100.00
2018-11-07T03:33:49.435Z,100.00
2018-11-07T03:34:55.320Z,100.00
2018-11-07T03:36:01.268Z,100.00
2018-11-07T03:37:07.256Z,100.00
2018-11-07T03:38:13.456Z,100.00
2018-11-07T03:39:19.663Z,100.00
2018-11-07T03:40:25.588Z,100.00
2018-11-07T03:41:31.193Z,100.00
2018-11-07T03:42:37.162Z,100.00
2018-11-07T03:43:43.110Z,100.00
2018-11-07T03:44:49.058Z,100.00
2018-11-07T03:45:54.750Z,100.00
2018-11-07T03:47:00.650Z,100.00
2018-11-07T03:48:06.858Z,100.00
2018-11-07T03:49:13.123Z,100.00
2018-11-07T03:50:19.034Z,100.00
2018-11-07T03:51:24.994Z,100.00
2018-11-07T03:52:42.963Z,100.00
2018-11-07T03:54:08.881Z,100.00
2018-11-07T03:55:24.363Z,100.00
2018-11-07T03:56:41.837Z,100.00
2018-11-07T03:58:52.788Z,100.00
2018-11-07T03:59:58.725Z,100.00
2018-11-07T04:01:08.642Z,100.00
2018-11-07T04:02:16.624Z,100.00
2018-11-07T04:03:45.282Z,100.00
2018-11-07T04:04:57.858Z,100.00
2018-11-07T04:06:17.705Z,100.00
2018-11-07T04:07:31.229Z,100.00
2018-11-07T04:08:47.178Z,100.00
2018-11-07T04:10:16.575Z,100.00
2018-11-07T04:12:01.825Z,100.00
2018-11-07T04:13:07.813Z,100.00
2018-11-07T04:14:24.851Z,100.00
2018-11-07T04:15:36.337Z,100.00
2018-11-07T04:16:49.638Z,100.00
2018-11-07T04:18:25.402Z,100.00
2018-11-07T04:19:47.858Z,100.00
2018-11-07T04:20:56.358Z,100.00
2018-11-07T04:22:21.281Z,100.00
2018-11-07T04:23:35.219Z,100.00
2018-11-07T04:24:52.093Z,100.00
2018-11-07T04:26:12.867Z,100.00
2018-11-07T04:27:27.949Z,100.00
2018-11-07T04:28:42.088Z,100.00
2018-11-07T04:29:59.683Z,100.00
2018-11-07T04:31:05.664Z,100.00
2018-11-07T04:32:11.577Z,100.00
2018-11-07T04:33:17.500Z,100.00
2018-11-07T04:34:23.717Z,100.00
2018-11-07T04:35:40.478Z,100.00
2018-11-07T04:36:56.094Z,100.00
2018-11-07T04:38:15.581Z,100.00
2018-11-07T04:39:30.230Z,100.00
2018-11-07T04:40:44.472Z,100.00
2018-11-07T04:42:00.205Z,100.00
2018-11-07T04:43:54.336Z,100.00
2018-11-07T04:45:01.398Z,100.00
2018-11-07T04:46:13.806Z,100.00
2018-11-07T04:47:36.439Z,100.00
2018-11-07T04:48:54.308Z,100.00
2018-11-07T04:50:16.663Z,100.00
2018-11-07T04:51:33.335Z,100.00
2018-11-07T04:52:49.439Z,100.00
2018-11-07T04:54:06.242Z,100.00
2018-11-07T04:55:24.221Z,100.00
2018-11-07T04:56:41.807Z,100.00
2018-11-07T04:58:13.478Z,100.00
2018-11-07T04:59:29.190Z,100.00
2018-11-07T05:00:43.575Z,100.00
2018-11-07T05:01:59.542Z,100.00
2018-11-07T05:03:06.975Z,100.00
2018-11-07T05:04:13.365Z,100.00
2018-11-07T05:05:24.536Z,100.00
2018-11-07T05:06:30.980Z,100.00
2018-11-07T05:07:51.743Z,100.00
2018-11-07T05:09:02.592Z,100.00
2018-11-07T05:10:20.042Z,100.00
2018-11-07T05:11:36.138Z,100.00
2018-11-07T05:12:51.106Z,100.00
2018-11-07T05:14:07.696Z,100.00
2018-11-07T05:15:25.363Z,100.00
2018-11-07T05:16:47.775Z,100.00
2018-11-07T05:18:11.006Z,100.00
2018-11-07T05:19:27.665Z,100.00
2018-11-07T05:20:47.451Z,100.00
2018-11-07T05:22:07.585Z,100.00
2018-11-07T05:23:48.052Z,100.00
2018-11-07T05:25:00.624Z,100.00
2018-11-07T05:26:23.846Z,100.00
2018-11-07T05:27:33.408Z,100.00
2018-11-07T05:28:43.017Z,100.00
2018-11-07T05:29:55.178Z,100.00
2018-11-07T05:31:19.204Z,100.00
2018-11-07T05:32:28.101Z,100.00
2018-11-07T05:33:35.601Z,100.00
2018-11-07T05:34:46.017Z,100.00
2018-11-07T05:35:53.374Z,100.00
2018-11-07T05:37:08.912Z,100.00
2018-11-07T05:38:20.399Z,100.00
2018-11-07T05:39:37.793Z,100.00
2018-11-07T05:40:56.175Z,100.00
2018-11-07T05:42:15.366Z,100.00
2018-11-07T05:43:31.010Z,100.00
2018-11-07T05:44:51.047Z,100.00
2018-11-07T05:46:06.905Z,100.00
2018-11-07T05:47:23.301Z,100.00
2018-11-07T05:48:40.117Z,100.00
2018-11-07T05:49:56.605Z,100.00
2018-11-07T05:51:05.601Z,100.00
2018-11-07T05:52:13.832Z,100.00
2018-11-07T05:53:22.832Z,100.00
2018-11-07T05:54:31.390Z,100.00
2018-11-07T05:55:44.041Z,100.00
2018-11-07T05:57:01.647Z,100.00
2018-11-07T05:58:17.994Z,100.00
2018-11-07T05:59:37.597Z,100.00
2018-11-07T06:00:56.969Z,100.00
2018-11-07T06:02:17.349Z,100.00
2018-11-07T06:03:42.358Z,100.00
2018-11-07T06:04:58.257Z,100.00
2018-11-07T06:06:28.571Z,100.00
2018-11-07T06:07:36.996Z,100.00
2018-11-07T06:08:54.542Z,100.00
2018-11-07T06:10:15.298Z,100.00
2018-11-07T06:11:33.854Z,100.00
2018-11-07T06:12:57.670Z,100.00
2018-11-07T06:14:27.847Z,100.00
2018-11-07T06:15:38.254Z,100.00
2018-11-07T06:16:54.916Z,100.00
2018-11-07T06:18:16.324Z,100.00
2018-11-07T06:19:38.202Z,100.00
2018-11-07T06:20:55.891Z,100.00
2018-11-07T06:22:12.623Z,100.00
2018-11-07T06:23:41.137Z,100.00
2018-11-07T06:25:01.343Z,100.00
2018-11-07T06:26:22.652Z,100.00
2018-11-07T06:27:42.126Z,100.00
2018-11-07T06:28:58.910Z,100.00
2018-11-07T06:30:19.033Z,100.00
2018-11-07T06:31:34.589Z,100.00
2018-11-07T06:32:54.064Z,100.00
2018-11-07T06:34:10.495Z,100.00
2018-11-07T06:35:30.608Z,100.00
2018-11-07T06:36:54.620Z,100.00
2018-11-07T06:38:13.279Z,100.00
2018-11-07T06:39:33.575Z,100.00
2018-11-07T06:40:50.189Z,100.00
2018-11-07T06:42:06.964Z,100.00
2018-11-07T06:43:58.680Z,100.00
2018-11-07T06:45:07.196Z,100.00
2018-11-07T06:46:30.343Z,100.00
2018-11-07T06:47:36.825Z,100.00
2018-11-07T06:48:55.613Z,100.00
2018-11-07T06:50:14.672Z,100.00
2018-11-07T06:51:32.949Z,100.00
2018-11-07T06:52:39.121Z,100.00
2018-11-07T06:54:25.095Z,100.00
2018-11-07T06:55:40.144Z,100.00
2018-11-07T06:56:48.250Z,100.00
2018-11-07T06:57:55.653Z,100.00
2018-11-07T06:59:04.076Z,100.00
2018-11-07T07:00:11.218Z,100.00
2018-11-07T07:01:20.478Z,100.00
2018-11-07T07:02:28.009Z,100.00
2018-11-07T07:03:35.959Z,100.00
2018-11-07T07:04:44.928Z,100.00
2018-11-07T07:05:52.840Z,100.00
2018-11-07T07:07:02.332Z,100.00
2018-11-07T07:08:11.889Z,100.00
2018-11-07T07:09:19.744Z,100.00
2018-11-07T07:10:32.001Z,100.00
2018-11-07T07:11:39.617Z,100.00
2018-11-07T07:12:48.148Z,100.00
2018-11-07T07:13:56.382Z,100.00
2018-11-07T07:15:06.128Z,100.00
2018-11-07T07:16:19.457Z,100.00
2018-11-07T07:17:25.635Z,100.00
2018-11-07T07:18:33.179Z,100.00
2018-11-07T07:19:39.383Z,100.00
2018-11-07T07:20:49.908Z,100.00
2018-11-07T07:21:58.401Z,100.00
2018-11-07T07:23:08.091Z,100.00
2018-11-07T07:24:18.720Z,100.00
2018-11-07T07:25:32.476Z,100.00
2018-11-07T07:26:40.182Z,100.00
2018-11-07T07:27:47.231Z,100.00
2018-11-07T07:28:55.870Z,100.00
2018-11-07T07:30:04.963Z,100.00
2018-11-07T07:31:12.933Z,100.00
2018-11-07T07:32:26.406Z,100.00
2018-11-07T07:33:35.204Z,100.00
2018-11-07T07:34:42.412Z,100.00
2018-11-07T07:35:51.672Z,100.00
2018-11-07T07:36:57.970Z,100.00
2018-11-07T07:38:05.545Z,100.00
2018-11-07T07:39:15.245Z,100.00
2018-11-07T07:40:23.252Z,100.00
2018-11-07T07:41:31.448Z,100.00
2018-11-07T07:42:37.679Z,100.00
2018-11-07T07:43:45.161Z,100.00
2018-11-07T07:44:53.365Z,100.00
2018-11-07T07:46:01.309Z,100.00
2018-11-07T07:47:08.786Z,100.00
2018-11-07T07:48:18.179Z,100.00
2018-11-07T07:49:26.440Z,100.00
2018-11-07T07:50:35.614Z,100.00
2018-11-07T07:51:46.891Z,100.00
2018-11-07T07:52:53.860Z,100.00
2018-11-07T07:54:00.934Z,100.00
2018-11-07T07:55:07.931Z,100.00
2018-11-07T07:56:16.312Z,100.00
2018-11-07T07:57:25.004Z,100.00
2018-11-07T07:58:33.033Z,100.00
2018-11-07T07:59:39.783Z,100.00
2018-11-07T08:00:48.593Z,100.00
2018-11-07T08:01:57.431Z,100.00
2018-11-07T08:03:07.533Z,100.00
2018-11-07T08:04:13.752Z,100.00
2018-11-07T08:05:24.559Z,100.00
2018-11-07T08:06:35.325Z,100.00
2018-11-07T08:07:47.945Z,100.00
2018-11-07T08:08:56.239Z,100.00
2018-11-07T08:10:03.098Z,100.00
2018-11-07T08:11:12.925Z,100.00
2018-11-07T08:12:24.630Z,100.00
2018-11-07T08:13:37.816Z,100.00
2018-11-07T08:14:45.690Z,100.00
2018-11-07T08:15:52.597Z,100.00
2018-11-07T08:17:02.014Z,100.00
2018-11-07T08:18:09.898Z,100.00
2018-11-07T08:19:18.370Z,100.00
2018-11-07T08:20:32.920Z,100.00
2018-11-07T08:21:41.236Z,100.00
2018-11-07T08:22:49.265Z,100.00
2018-11-07T08:23:56.714Z,100.00
2018-11-07T08:25:03.175Z,100.00
2018-11-07T08:26:11.812Z,100.00
2018-11-07T08:27:22.254Z,100.00
2018-11-07T08:28:31.281Z,100.00
2018-11-07T08:29:39.768Z,100.00
2018-11-07T08:30:46.121Z,100.00
2018-11-07T08:31:56.067Z,100.00
2018-11-07T08:33:04.749Z,100.00
2018-11-07T08:34:14.835Z,100.00
2018-11-07T08:35:25.302Z,100.00
2018-11-07T08:36:33.377Z,100.00
2018-11-07T08:37:41.638Z,100.00
2018-11-07T08:38:48.104Z,100.00
2018-11-07T08:39:57.253Z,100.00
2018-11-07T08:41:06.044Z,100.00
2018-11-07T08:42:14.494Z,100.00
2018-11-07T08:43:26.645Z,100.00
2018-11-07T08:44:50.538Z,100.00
2018-11-07T08:45:57.011Z,100.00
2018-11-07T08:47:04.352Z,100.00
2018-11-07T08:48:12.108Z,100.00
2018-11-07T08:49:19.537Z,100.00
2018-11-07T08:50:29.499Z,100.00
2018-11-07T08:51:37.390Z,100.00
2018-11-07T08:52:45.831Z,100.00
2018-11-07T08:53:52.064Z,100.00
2018-11-07T08:54:59.088Z,100.00
2018-11-07T08:56:05.007Z,100.00
2018-11-07T08:57:11.579Z,100.00
2018-11-07T08:58:20.725Z,100.00
2018-11-07T08:59:28.457Z,100.00
2018-11-07T09:00:37.817Z,100.00
2018-11-07T09:01:46.336Z,100.00
2018-11-07T09:02:54.143Z,100.00
2018-11-07T09:04:02.707Z,100.00
2018-11-07T09:05:10.683Z,100.00
2018-11-07T09:06:18.647Z,100.00
2018-11-07T09:07:26.273Z,100.00
2018-11-07T09:08:33.864Z,100.00
2018-11-07T09:09:42.200Z,100.00
2018-11-07T09:10:49.586Z,100.00
2018-11-07T09:12:00.129Z,100.00
2018-11-07T09:13:09.676Z,100.00
2018-11-07T09:14:17.267Z,100.00
2018-11-07T09:15:26.274Z,100.00
2018-11-07T09:16:37.077Z,100.00
2018-11-07T09:17:43.252Z,100.00
2018-11-07T09:18:51.212Z,100.00
2018-11-07T09:20:00.147Z,100.00
2018-11-07T09:21:07.754Z,100.00
2018-11-07T09:22:17.691Z,100.00
2018-11-07T09:23:28.696Z,100.00
2018-11-07T09:24:36.426Z,100.00
2018-11-07T09:25:42.941Z,100.00
2018-11-07T09:26:53.279Z,100.00
2018-11-07T09:28:03.340Z,100.00
2018-11-07T09:29:12.284Z,100.00
2018-11-07T09:30:21.149Z,100.00
2018-11-07T09:31:30.342Z,100.00
2018-11-07T09:32:36.857Z,100.00
2018-11-07T09:33:43.181Z,99.69
2018-11-07T09:34:50.762Z,99.86
2018-11-07T09:35:58.365Z,99.35
2018-11-07T09:37:07.696Z,99.17
2018-11-07T09:38:15.418Z,98.90
2018-11-07T09:39:22.025Z,99.63
2018-11-07T09:40:30.203Z,99.88
2018-11-07T09:41:38.533Z,99.83
2018-11-07T09:42:48.479Z,100.00
2018-11-07T09:43:57.039Z,100.00
2018-11-07T09:45:04.226Z,100.00
2018-11-07T09:46:10.637Z,100.00
2018-11-07T09:47:20.363Z,100.00
2018-11-07T09:48:27.529Z,100.00
2018-11-07T09:49:33.867Z,100.00
2018-11-07T09:50:40.124Z,100.00
2018-11-07T09:51:48.133Z,99.24
2018-11-07T09:52:55.966Z,98.35
2018-11-07T09:54:05.461Z,97.85
2018-11-07T09:55:11.904Z,96.30
2018-11-07T09:56:23.665Z,95.83
2018-11-07T09:57:30.395Z,95.66
2018-11-07T09:58:37.849Z,94.87
2018-11-07T09:59:45.168Z,94.54
2018-11-07T10:00:53.184Z,94.90
2018-11-07T10:02:01.572Z,94.43
2018-11-07T10:03:09.091Z,95.71
2018-11-07T10:04:16.978Z,95.73
2018-11-07T10:05:24.919Z,95.35
2018-11-07T10:06:31.494Z,94.30
2018-11-07T10:07:39.495Z,92.72
2018-11-07T10:08:47.668Z,92.76
2018-11-07T10:09:55.326Z,91.70
2018-11-07T10:11:02.390Z,90.36
2018-11-07T10:12:09.380Z,89.56
2018-11-07T10:13:20.312Z,90.07
2018-11-07T10:14:28.605Z,89.42
2018-11-07T10:15:36.980Z,89.41
2018-11-07T10:16:48.419Z,88.88
2018-11-07T10:17:56.219Z,88.10
2018-11-07T10:19:02.229Z,87.80
2018-11-07T10:20:08.097Z,87.85
2018-11-07T10:21:18.316Z,87.17
2018-11-07T10:22:26.623Z,87.04
2018-11-07T10:23:35.055Z,87.23
2018-11-07T10:24:42.358Z,86.75
2018-11-07T10:25:50.018Z,87.24
2018-11-07T10:26:56.425Z,85.67
2018-11-07T10:28:06.609Z,86.57
2018-11-07T10:29:19.079Z,86.83
2018-11-07T10:30:25.761Z,87.20
2018-11-07T10:31:32.523Z,87.91
2018-11-07T10:32:38.613Z,86.13
2018-11-07T10:33:46.417Z,85.26
2018-11-07T10:34:55.887Z,85.40
2018-11-07T10:36:04.965Z,84.98
2018-11-07T10:37:13.098Z,84.61
2018-11-07T10:38:20.814Z,84.85
2018-11-07T10:39:28.966Z,84.88
2018-11-07T10:40:35.320Z,84.08
2018-11-07T10:41:45.559Z,86.18
2018-11-07T10:42:56.029Z,83.94
2018-11-07T10:44:03.844Z,84.53
2018-11-07T10:45:13.708Z,83.77
2018-11-07T10:46:21.863Z,82.36
2018-11-07T10:47:34.605Z,83.58
2018-11-07T10:48:41.892Z,84.46
2018-11-07T10:49:51.522Z,83.14
2018-11-07T10:50:59.936Z,83.16
2018-11-07T10:52:05.683Z,82.40
2018-11-07T10:53:16.449Z,83.54
2018-11-07T10:54:24.567Z,82.73
2018-11-07T10:55:34.077Z,83.11
2018-11-07T10:56:45.100Z,83.35
2018-11-07T10:57:53.120Z,83.05
2018-11-07T10:58:59.324Z,82.99
2018-11-07T11:00:05.914Z,82.33
2018-11-07T11:01:12.536Z,81.64
2018-11-07T11:02:20.549Z,82.15
2018-11-07T11:03:32.563Z,82.11
2018-11-07T11:04:39.408Z,82.55
2018-11-07T11:05:49.849Z,81.63
2018-11-07T11:06:58.528Z,81.04
2018-11-07T11:08:06.199Z,81.15
2018-11-07T11:09:15.991Z,81.40
2018-11-07T11:10:22.569Z,81.21
2018-11-07T11:11:31.130Z,80.07
2018-11-07T11:12:38.106Z,79.34
2018-11-07T11:13:45.634Z,79.52
2018-11-07T11:15:00.126Z,81.32
2018-11-07T11:16:10.807Z,81.66
2018-11-07T11:17:19.967Z,80.09
2018-11-07T11:18:26.448Z,80.09
2018-11-07T11:19:36.214Z,79.95
2018-11-07T11:20:45.535Z,81.03
2018-11-07T11:21:55.412Z,80.62
2018-11-07T11:23:01.549Z,79.31
2018-11-07T11:24:10.392Z,78.99
2018-11-07T11:25:16.477Z,78.95
2018-11-07T11:26:26.905Z,79.18
2018-11-07T11:27:33.327Z,78.90
2018-11-07T11:28:40.766Z,79.00
2018-11-07T11:29:49.434Z,78.20
2018-11-07T11:30:56.455Z,77.42
2018-11-07T11:32:03.780Z,77.52
2018-11-07T11:33:11.197Z,78.11
2018-11-07T11:34:18.529Z,78.40
2018-11-07T11:35:26.218Z,77.14
2018-11-07T11:36:33.096Z,77.43
2018-11-07T11:37:45.817Z,77.55
2018-11-07T11:38:56.839Z,78.07
2018-11-07T11:40:05.936Z,78.90
2018-11-07T11:41:13.588Z,78.41
2018-11-07T11:42:20.349Z,78.19
2018-11-07T11:43:27.991Z,77.06
2018-11-07T11:44:34.943Z,76.29
2018-11-07T11:45:48.333Z,75.94
2018-11-07T11:46:56.537Z,75.73
2018-11-07T11:48:03.378Z,76.26
2018-11-07T11:49:14.361Z,76.92
2018-11-07T11:50:24.915Z,75.52
2018-11-07T11:51:32.154Z,74.87
2018-11-07T11:52:40.848Z,75.33
2018-11-07T11:53:48.623Z,76.59
2018-11-07T11:54:56.115Z,77.64
2018-11-07T11:56:04.676Z,76.87
2018-11-07T11:57:12.312Z,76.17
2018-11-07T11:58:20.176Z,76.23
2018-11-07T11:59:34.225Z,76.72
2018-11-07T12:00:40.778Z,76.05
2018-11-07T12:01:49.705Z,75.12
2018-11-07T12:02:56.289Z,73.95
2018-11-07T12:04:03.833Z,74.23
2018-11-07T12:05:10.639Z,73.31
2018-11-07T12:06:17.747Z,72.60
2018-11-07T12:07:26.086Z,73.29
2018-11-07T12:08:34.284Z,73.97
2018-11-07T12:09:43.333Z,74.93
2018-11-07T12:10:49.646Z,75.59
2018-11-07T12:12:00.438Z,75.72
2018-11-07T12:13:11.039Z,73.22
2018-11-07T12:14:18.073Z,72.53
2018-11-07T12:15:26.095Z,73.06
2018-11-07T12:16:33.551Z,71.80
2018-11-07T12:17:41.531Z,72.51
2018-11-07T12:18:49.397Z,72.09
2018-11-07T12:19:56.878Z,72.34
2018-11-07T12:21:03.350Z,70.49
2018-11-07T12:22:13.772Z,69.85
2018-11-07T12:23:21.468Z,69.61
2018-11-07T12:24:29.978Z,71.13
2018-11-07T12:25:38.131Z,69.09
2018-11-07T12:26:46.038Z,69.89
2018-11-07T12:27:53.875Z,70.10
2018-11-07T12:29:02.026Z,70.40
2018-11-07T12:30:09.992Z,69.97
2018-11-07T12:31:16.941Z,70.30
2018-11-07T12:32:26.111Z,69.95
2018-11-07T12:33:33.574Z,69.03
2018-11-07T12:34:42.920Z,68.26
2018-11-07T12:35:54.617Z,66.70
2018-11-07T12:37:04.072Z,66.87
2018-11-07T12:38:14.443Z,67.65
2018-11-07T12:39:22.282Z,66.62
2018-11-07T12:40:30.269Z,66.80
2018-11-07T12:41:39.013Z,66.04
2018-11-07T12:42:47.982Z,67.06
2018-11-07T12:43:55.742Z,66.45
2018-11-07T12:45:02.927Z,65.09
2018-11-07T12:46:08.790Z,64.93
2018-11-07T12:47:16.283Z,64.73
2018-11-07T12:48:24.280Z,64.88
2018-11-07T12:49:32.498Z,65.57
2018-11-07T12:50:41.225Z,66.16
2018-11-07T12:51:47.531Z,66.18
2018-11-07T12:52:56.395Z,67.36
2018-11-07T12:54:05.535Z,66.87
2018-11-07T12:55:13.842Z,67.10
2018-11-07T12:56:21.454Z,67.61
2018-11-07T12:57:31.579Z,65.49
2018-11-07T12:58:37.895Z,63.68
2018-11-07T12:59:44.870Z,63.30
2018-11-07T13:00:53.223Z,63.26
2018-11-07T13:02:03.624Z,62.92
2018-11-07T13:03:17.423Z,63.04
2018-11-07T13:04:27.344Z,64.30
2018-11-07T13:05:36.509Z,64.04
2018-11-07T13:06:48.740Z,63.89
2018-11-07T13:07:58.708Z,64.04
2018-11-07T13:09:07.257Z,63.15
2018-11-07T13:10:13.879Z,64.07
2018-11-07T13:11:22.557Z,65.50
2018-11-07T13:12:29.526Z,64.62
2018-11-07T13:13:36.133Z,64.10
2018-11-07T13:14:46.204Z,65.08
2018-11-07T13:15:54.485Z,64.58
2018-11-07T13:17:01.599Z,63.07
2018-11-07T13:18:10.160Z,64.14
2018-11-07T13:19:16.862Z,65.51
2018-11-07T13:20:24.054Z,66.74
2018-11-07T13:21:33.233Z,64.68
2018-11-07T13:22:46.382Z,63.25
2018-11-07T13:23:55.171Z,61.73
2018-11-07T13:25:04.538Z,62.32
2018-11-07T13:26:14.849Z,62.79
2018-11-07T13:27:25.790Z,62.68
2018-11-07T13:28:34.017Z,61.30
2018-11-07T13:29:47.164Z,61.69
2018-11-07T13:30:56.241Z,63.43
2018-11-07T13:32:03.769Z,63.03
2018-11-07T13:33:11.605Z,60.94
2018-11-07T13:34:21.171Z,59.91
2018-11-07T13:35:27.419Z,59.48
2018-11-07T13:36:34.056Z,59.84
2018-11-07T13:37:44.317Z,60.05
2018-11-07T13:38:52.702Z,61.79
2018-11-07T13:39:58.543Z,61.98
2018-11-07T13:41:04.396Z,61.54
2018-11-07T13:42:10.660Z,60.58
2018-11-07T13:43:17.024Z,60.24
2018-11-07T13:44:26.591Z,60.58
2018-11-07T13:45:34.277Z,61.17
2018-11-07T13:46:46.026Z,60.62
2018-11-07T13:47:53.682Z,61.10
2018-11-07T13:49:00.655Z,61.93
2018-11-07T13:50:09.615Z,62.42
2018-11-07T13:51:16.676Z,61.73
2018-11-07T13:52:25.850Z,61.39
2018-11-07T13:53:32.624Z,61.45
2018-11-07T13:54:38.784Z,62.97
2018-11-07T13:55:46.294Z,62.35
2018-11-07T13:56:52.519Z,62.97
2018-11-07T13:58:02.812Z,62.54
2018-11-07T13:59:10.072Z,62.10
2018-11-07T14:00:18.712Z,63.47
2018-11-07T14:01:28.873Z,64.46
2018-11-07T14:02:37.740Z,64.44
2018-11-07T14:03:46.935Z,64.33
2018-11-07T14:04:55.726Z,64.53
2018-11-07T14:06:03.788Z,66.16
2018-11-07T14:07:10.253Z,66.68
2018-11-07T14:08:17.416Z,66.34
2018-11-07T14:09:27.032Z,67.21
2018-11-07T14:10:40.021Z,66.05
2018-11-07T14:11:50.189Z,65.48
2018-11-07T14:12:57.688Z,65.57
2018-11-07T14:14:06.640Z,65.45
2018-11-07T14:15:19.500Z,66.29
2018-11-07T14:16:29.282Z,64.48
2018-11-07T14:17:36.878Z,64.21
2018-11-07T14:18:45.168Z,65.92
2018-11-07T14:19:56.024Z,67.15
2018-11-07T14:21:03.402Z,67.30
2018-11-07T14:22:15.083Z,67.30
2018-11-07T14:23:21.254Z,68.33
2018-11-07T14:24:33.135Z,67.77
2018-11-07T14:25:40.223Z,66.72
2018-11-07T14:26:50.988Z,67.41
2018-11-07T14:28:00.590Z,66.74
2018-11-07T14:29:09.134Z,68.44
2018-11-07T14:30:17.489Z,69.36
2018-11-07T14:31:27.221Z,70.85
2018-11-07T14:32:37.029Z,70.69
2018-11-07T14:33:44.403Z,69.46
2018-11-07T14:34:51.553Z,68.84
2018-11-07T14:35:58.828Z,69.29
2018-11-07T14:37:09.885Z,69.46